createdAt,value
2022-09-12T00:00:15.747Z,12.96
2022-09-12T00:03:18.485Z,13.04
2022-09-12T00:06:28.328Z,13.15
2022-09-12T00:09:31.065Z,13.21
2022-09-12T00:12:33.526Z,13.23
2022-09-12T00:15:40.537Z,13.18
2022-09-12T00:18:43.864Z,13.12
2022-09-12T00:21:46.560Z,13.12
2022-09-12T00:24:49.009Z,13.10
2022-09-12T00:27:51.828Z,12.99
2022-09-12T00:30:54.305Z,12.95
2022-09-12T00:33:58.800Z,12.93
2022-09-12T00:37:01.451Z,12.90
2022-09-12T00:40:04.561Z,12.88
2022-09-12T00:43:13.709Z,12.80
2022-09-12T00:46:28.384Z,12.75
2022-09-12T00:50:04.556Z,12.73
2022-09-12T00:53:08.799Z,12.76
2022-09-12T00:56:12.728Z,12.76
2022-09-12T00:59:19.129Z,12.72
2022-09-12T01:02:21.979Z,12.73
2022-09-12T01:05:25.176Z,12.75
2022-09-12T01:08:28.801Z,12.74
2022-09-12T01:11:32.864Z,12.68
2022-09-12T01:14:35.587Z,12.64
2022-09-12T01:18:24.960Z,12.58
2022-09-12T01:21:36.332Z,12.56
2022-09-12T01:25:17.984Z,12.54
2022-09-12T01:28:51.424Z,12.55
2022-09-12T01:32:09.198Z,12.51
2022-09-12T01:35:22.991Z,12.51
2022-09-12T01:38:36.375Z,12.51
2022-09-12T01:42:03.800Z,12.50
2022-09-12T01:45:18.605Z,12.54
2022-09-12T01:48:31.274Z,12.57
2022-09-12T01:52:01.827Z,12.61
2022-09-12T01:55:12.891Z,12.61
2022-09-12T01:58:39.249Z,12.58
2022-09-12T02:01:46.827Z,12.59
2022-09-12T02:04:58.217Z,12.58
2022-09-12T02:08:07.477Z,12.55
2022-09-12T02:11:11.735Z,12.52
2022-09-12T02:14:20.334Z,12.55
2022-09-12T02:17:26.311Z,12.46
2022-09-12T02:20:51.032Z,12.51
2022-09-12T02:23:59.490Z,12.53
2022-09-12T02:27:18.770Z,12.52
2022-09-12T02:30:22.218Z,12.58
2022-09-12T02:33:49.970Z,12.73
2022-09-12T02:37:04.082Z,12.77
2022-09-12T02:40:09.045Z,12.89
2022-09-12T02:43:11.837Z,12.90
2022-09-12T02:46:19.403Z,12.84
2022-09-12T02:49:22.629Z,12.81
2022-09-12T02:52:26.133Z,12.74
2022-09-12T02:55:30.468Z,12.65
2022-09-12T02:58:33.193Z,12.64
2022-09-12T03:01:45.633Z,12.62
2022-09-12T03:05:20.326Z,12.78
2022-09-12T03:08:50.695Z,12.76
2022-09-12T03:12:11.949Z,12.91
2022-09-12T03:15:40.925Z,12.98
2022-09-12T03:18:53.880Z,13.04
2022-09-12T03:22:11.125Z,13.09
2022-09-12T03:25:21.004Z,13.09
2022-09-12T03:28:25.163Z,13.11
2022-09-12T03:31:27.833Z,13.12
2022-09-12T03:34:30.518Z,13.14
2022-09-12T03:37:32.967Z,13.13
2022-09-12T03:40:36.840Z,13.16
2022-09-12T03:43:39.382Z,13.19
2022-09-12T03:46:42.133Z,13.20
2022-09-12T03:49:44.775Z,13.22
2022-09-12T03:52:47.491Z,13.22
2022-09-12T03:55:49.893Z,13.18
2022-09-12T03:58:52.631Z,13.13
2022-09-12T04:01:55.114Z,13.07
2022-09-12T04:04:57.833Z,13.12
2022-09-12T04:08:00.283Z,13.18
2022-09-12T04:11:08.005Z,13.15
2022-09-12T04:14:10.471Z,13.13
2022-09-12T04:17:14.215Z,13.13
2022-09-12T04:20:16.950Z,13.07
2022-09-12T04:23:19.776Z,13.04
2022-09-12T04:26:22.470Z,12.95
2022-09-12T04:29:25.206Z,12.90
2022-09-12T04:32:29.785Z,12.93
2022-09-12T04:35:35.625Z,13.03
2022-09-12T04:38:39.093Z,13.09
2022-09-12T04:41:42.056Z,13.03
2022-09-12T04:44:44.520Z,12.99
2022-09-12T04:47:47.377Z,13.01
2022-09-12T04:50:50.029Z,13.09
2022-09-12T04:53:54.159Z,13.29
2022-09-12T04:56:56.956Z,13.41
2022-09-12T05:00:02.833Z,13.50
2022-09-12T05:03:08.990Z,13.55
2022-09-12T05:06:17.321Z,13.65
2022-09-12T05:09:19.733Z,13.75
2022-09-12T05:12:22.430Z,13.86
2022-09-12T05:15:25.210Z,14.01
2022-09-12T05:18:28.045Z,14.08
2022-09-12T05:21:30.522Z,14.18
2022-09-12T05:24:35.233Z,14.33
2022-09-12T05:27:37.712Z,14.48
2022-09-12T05:30:40.476Z,14.66
2022-09-12T05:33:44.525Z,15.51
2022-09-12T05:36:47.328Z,16.14
2022-09-12T05:39:50.050Z,15.93
2022-09-12T05:42:52.780Z,15.80
2022-09-12T05:46:10.626Z,15.73
2022-09-12T05:49:13.718Z,15.62
2022-09-12T05:52:16.357Z,15.48
2022-09-12T05:55:19.576Z,15.41
2022-09-12T05:58:23.059Z,15.34
2022-09-12T06:01:27.333Z,15.46
2022-09-12T06:04:30.125Z,15.36
2022-09-12T06:07:32.920Z,15.41
2022-09-12T06:10:35.638Z,15.44
2022-09-12T06:13:40.111Z,15.42
2022-09-12T06:16:42.982Z,15.41
2022-09-12T06:19:45.712Z,15.41
2022-09-12T06:22:48.486Z,15.40
2022-09-12T06:25:51.057Z,15.48
2022-09-12T06:28:55.181Z,15.52
2022-09-12T06:31:57.788Z,15.40
2022-09-12T06:35:00.531Z,15.59
2022-09-12T06:38:02.974Z,15.54
2022-09-12T06:41:11.443Z,15.53
2022-09-12T06:44:23.021Z,15.43
2022-09-12T06:47:25.736Z,15.57
2022-09-12T06:50:28.277Z,15.53
2022-09-12T06:53:33.701Z,15.59
2022-09-12T06:56:36.173Z,15.48
2022-09-12T06:59:39.298Z,15.66
2022-09-12T07:02:41.832Z,15.73
2022-09-12T07:05:46.082Z,15.82
2022-09-12T07:08:48.768Z,15.69
2022-09-12T07:11:51.520Z,15.71
2022-09-12T07:14:53.936Z,15.67
2022-09-12T07:17:56.656Z,16.21
2022-09-12T07:21:02.879Z,17.32
2022-09-12T07:24:06.393Z,17.40
2022-09-12T07:27:08.910Z,17.09
2022-09-12T07:30:12.153Z,16.80
2022-09-12T07:33:14.636Z,16.80
2022-09-12T07:36:19.024Z,16.84
2022-09-12T07:39:21.486Z,16.68
2022-09-12T07:42:24.185Z,16.53
2022-09-12T07:45:26.972Z,16.40
2022-09-12T07:48:29.852Z,16.54
2022-09-12T07:51:32.315Z,16.71
2022-09-12T07:54:35.257Z,17.06
2022-09-12T07:57:37.760Z,17.07
2022-09-12T08:00:41.208Z,17.09
2022-09-12T08:03:46.308Z,17.11
2022-09-12T08:06:49.037Z,17.45
2022-09-12T08:09:51.857Z,17.74
2022-09-12T08:12:54.377Z,19.00
2022-09-12T08:16:02.265Z,20.15
2022-09-12T08:19:05.372Z,20.83
2022-09-12T08:22:08.344Z,22.15
2022-09-12T08:25:10.930Z,22.45
2022-09-12T08:28:13.624Z,23.30
2022-09-12T08:31:18.202Z,23.48
2022-09-12T08:34:21.128Z,23.65
2022-09-12T08:37:23.711Z,23.48
2022-09-12T08:40:26.451Z,23.84
2022-09-12T08:43:56.693Z,24.05
2022-09-12T08:47:17.751Z,22.93
2022-09-12T08:50:22.357Z,23.26
2022-09-12T08:53:26.217Z,23.26
2022-09-12T08:56:32.176Z,24.43
2022-09-12T08:59:41.415Z,24.77
2022-09-12T09:03:02.024Z,25.46
2022-09-12T09:06:19.931Z,26.23
2022-09-12T09:09:46.743Z,25.28
2022-09-12T09:13:07.883Z,24.87
2022-09-12T09:16:33.131Z,24.05
2022-09-12T09:19:39.428Z,22.42
2022-09-12T09:22:53.589Z,22.60
2022-09-12T09:26:15.738Z,22.74
2022-09-12T09:29:20.519Z,22.11
2022-09-12T09:32:28.823Z,21.83
2022-09-12T09:35:45.618Z,22.05
2022-09-12T09:38:50.675Z,22.41
2022-09-12T09:42:19.949Z,22.30
2022-09-12T09:45:25.198Z,22.15
2022-09-12T09:48:36.445Z,21.69
2022-09-12T09:54:50.177Z,21.47
2022-09-12T09:57:53.365Z,22.51
2022-09-12T10:01:17.315Z,21.86
2022-09-12T10:04:22.667Z,22.86
2022-09-12T10:07:26.290Z,22.76
2022-09-12T10:10:28.963Z,22.88
2022-09-12T10:13:40.601Z,23.84
2022-09-12T10:16:54.263Z,23.04
2022-09-12T10:20:17.434Z,25.14
2022-09-12T10:23:19.659Z,26.33
2022-09-12T10:26:22.072Z,26.76
2022-09-12T10:29:28.935Z,27.44
2022-09-12T10:32:41.810Z,25.84
2022-09-12T10:35:48.936Z,24.25
2022-09-12T10:38:57.538Z,25.95
2022-09-12T10:42:01.376Z,25.83
2022-09-12T10:45:04.116Z,24.68
2022-09-12T10:48:27.419Z,23.90
2022-09-12T10:51:30.457Z,22.45
2022-09-12T10:54:34.499Z,22.98
2022-09-12T10:57:44.997Z,24.88
2022-09-12T11:00:54.462Z,25.88
2022-09-12T11:04:10.247Z,26.79
2022-09-12T11:07:34.113Z,25.69
2022-09-12T11:10:51.792Z,26.35
2022-09-12T11:14:03.410Z,26.82
2022-09-12T11:17:46.959Z,26.79
2022-09-12T11:21:02.413Z,24.99
2022-09-12T11:24:29.331Z,25.89
2022-09-12T11:27:31.853Z,25.36
2022-09-12T11:30:50.577Z,26.58
2022-09-12T11:33:56.634Z,26.61
2022-09-12T11:37:21.290Z,27.33
2022-09-12T11:40:29.889Z,24.56
2022-09-12T11:43:40.152Z,23.47
2022-09-12T11:46:44.709Z,24.32
2022-09-12T11:49:51.177Z,23.11
2022-09-12T11:52:58.175Z,23.12
2022-09-12T11:56:13.687Z,22.08
2022-09-12T11:59:46.854Z,21.86
2022-09-12T12:03:23.842Z,21.48
2022-09-12T12:06:52.358Z,21.36
2022-09-12T12:09:55.796Z,20.87
2022-09-12T12:12:59.415Z,20.92
2022-09-12T12:16:08.337Z,21.17
2022-09-12T12:19:13.891Z,21.69
2022-09-12T12:22:20.570Z,21.67
2022-09-12T12:25:29.829Z,21.36
2022-09-12T12:28:41.795Z,21.20
2022-09-12T12:31:59.903Z,21.37
2022-09-12T12:35:41.370Z,21.36
2022-09-12T12:38:44.440Z,21.34
2022-09-12T12:41:46.914Z,21.42
2022-09-12T12:44:51.453Z,21.51
2022-09-12T12:48:10.609Z,21.71
2022-09-12T12:51:34.158Z,22.03
2022-09-12T12:55:03.513Z,22.05
2022-09-12T12:58:08.002Z,22.07
2022-09-12T13:01:14.009Z,22.13
2022-09-12T13:04:22.349Z,22.01
2022-09-12T13:07:29.223Z,21.79
2022-09-12T13:10:31.986Z,21.73
2022-09-12T13:13:43.950Z,21.60
2022-09-12T13:16:54.874Z,21.55
2022-09-12T13:20:27.333Z,21.59
2022-09-12T13:23:32.648Z,21.45
2022-09-12T13:26:41.569Z,21.36
2022-09-12T13:29:44.265Z,21.15
2022-09-12T13:32:46.690Z,20.98
2022-09-12T13:36:09.811Z,21.05
2022-09-12T13:39:27.130Z,21.20
2022-09-12T13:42:48.677Z,21.14
2022-09-12T13:45:52.857Z,21.16
2022-09-12T13:49:01.674Z,21.09
2022-09-12T13:52:07.075Z,20.97
2022-09-12T13:55:36.554Z,21.03
2022-09-12T13:58:39.019Z,20.93
2022-09-12T14:01:46.840Z,20.91
2022-09-12T14:05:10.434Z,21.00
2022-09-12T14:08:15.466Z,20.94
2022-09-12T14:11:25.425Z,20.92
2022-09-12T14:14:31.481Z,20.95
2022-09-12T14:17:36.432Z,20.95
2022-09-12T14:20:39.459Z,20.98
2022-09-12T14:23:43.323Z,21.00
2022-09-12T14:26:47.463Z,21.09
2022-09-12T14:29:53.981Z,21.20
2022-09-12T14:33:11.580Z,21.14
2022-09-12T14:36:26.305Z,21.23
2022-09-12T14:39:30.309Z,21.42
2022-09-12T14:42:34.224Z,21.59
2022-09-12T14:45:36.598Z,21.91
2022-09-12T14:48:44.467Z,21.85
2022-09-12T14:51:57.557Z,21.83
2022-09-12T14:55:20.251Z,21.64
2022-09-12T14:58:26.465Z,21.37
2022-09-12T15:01:29.175Z,21.18
2022-09-12T15:04:41.254Z,21.06
2022-09-12T15:08:00.026Z,20.86
2022-09-12T15:11:02.590Z,20.73
2022-09-12T15:14:15.440Z,20.55
2022-09-12T15:17:17.805Z,20.52
2022-09-12T15:20:21.309Z,20.28
2022-09-12T15:23:36.285Z,20.13
2022-09-12T15:26:39.326Z,19.98
2022-09-12T15:29:41.722Z,19.82
2022-09-12T15:32:45.003Z,19.87
2022-09-12T15:35:47.445Z,19.98
2022-09-12T15:38:51.135Z,20.12
2022-09-12T15:41:53.950Z,20.17
2022-09-12T15:45:00.546Z,20.12
2022-09-12T15:48:05.681Z,20.04
2022-09-12T15:51:15.253Z,20.00
2022-09-12T15:54:18.539Z,20.07
2022-09-12T15:57:21.201Z,20.10
2022-09-12T16:00:24.095Z,20.08
2022-09-12T16:03:28.205Z,20.01
2022-09-12T16:06:37.021Z,19.95
2022-09-12T16:09:40.213Z,19.88
2022-09-12T16:12:44.607Z,19.86
2022-09-12T16:15:47.324Z,19.75
2022-09-12T16:18:49.768Z,19.59
2022-09-12T16:21:52.575Z,19.49
2022-09-12T16:24:54.942Z,19.46
2022-09-12T16:27:57.625Z,19.40
2022-09-12T16:31:02.098Z,19.32
2022-09-12T16:34:04.747Z,19.24
2022-09-12T16:37:07.125Z,19.18
2022-09-12T16:40:10.541Z,19.07
2022-09-12T16:43:13.721Z,19.13
2022-09-12T16:46:25.312Z,19.12
2022-09-12T16:49:27.752Z,19.09
2022-09-12T16:52:31.253Z,19.07
2022-09-12T16:55:33.643Z,18.97
2022-09-12T16:58:41.765Z,18.82
2022-09-12T17:01:45.333Z,18.65
2022-09-12T17:04:47.991Z,18.49
2022-09-12T17:07:50.383Z,18.29
2022-09-12T17:10:53.291Z,18.13
2022-09-12T17:14:05.877Z,18.01
2022-09-12T17:17:09.294Z,18.00
2022-09-12T17:20:11.664Z,18.00
2022-09-12T17:23:14.481Z,17.96
2022-09-12T17:26:17.214Z,17.96
2022-09-12T17:29:20.070Z,17.85
2022-09-12T17:32:22.464Z,17.83
2022-09-12T17:35:25.686Z,17.80
2022-09-12T17:38:28.161Z,17.77
2022-09-12T17:41:34.175Z,17.69
2022-09-12T17:44:37.115Z,17.60
2022-09-12T17:47:39.888Z,17.51
2022-09-12T17:50:42.475Z,17.44
2022-09-12T17:53:45.426Z,17.33
2022-09-12T17:56:49.800Z,17.21
2022-09-12T17:59:52.587Z,17.15
2022-09-12T18:02:55.056Z,17.00
2022-09-12T18:05:57.725Z,16.92
2022-09-12T18:09:05.397Z,16.81
2022-09-12T18:12:08.597Z,16.70
2022-09-12T18:15:11.223Z,16.58
2022-09-12T18:18:13.877Z,16.46
2022-09-12T18:21:16.273Z,16.38
2022-09-12T18:24:19.202Z,16.29
2022-09-12T18:27:21.626Z,16.24
2022-09-12T18:30:24.601Z,16.18
2022-09-12T18:33:27.146Z,16.05
2022-09-12T18:36:30.669Z,15.94
2022-09-12T18:39:33.041Z,15.77
2022-09-12T18:42:35.735Z,15.80
2022-09-12T18:45:38.162Z,15.68
2022-09-12T18:48:41.014Z,15.63
2022-09-12T18:51:44.499Z,15.35
2022-09-12T18:54:47.286Z,15.36
2022-09-12T18:57:50.601Z,15.26
2022-09-12T19:00:53.512Z,15.17
2022-09-12T19:03:56.236Z,15.11
2022-09-12T19:06:58.865Z,15.01
2022-09-12T19:10:01.541Z,14.84
2022-09-12T19:13:04.235Z,14.68
2022-09-12T19:16:11.643Z,14.62
2022-09-12T19:19:14.437Z,14.57
2022-09-12T19:22:16.917Z,14.48
2022-09-12T19:25:19.696Z,14.45
2022-09-12T19:28:22.079Z,14.28
2022-09-12T19:31:25.336Z,14.16
2022-09-12T19:34:28.085Z,14.08
2022-09-12T19:37:30.739Z,14.11
2022-09-12T19:40:33.152Z,14.04
2022-09-12T19:43:35.934Z,13.98
2022-09-12T19:46:38.498Z,13.93
2022-09-12T19:49:41.261Z,13.87
2022-09-12T19:52:43.627Z,13.79
2022-09-12T19:55:46.806Z,13.83
2022-09-12T19:58:55.762Z,13.66
2022-09-12T20:01:58.985Z,13.67
2022-09-12T20:05:01.917Z,13.57
2022-09-12T20:08:04.336Z,13.56
2022-09-12T20:11:07.799Z,13.55
2022-09-12T20:14:10.285Z,13.42
2022-09-12T20:17:13.112Z,13.42
2022-09-12T20:20:15.715Z,13.34
2022-09-12T20:23:18.541Z,13.32
2022-09-12T20:26:23.595Z,13.23
2022-09-12T20:29:26.984Z,13.20
2022-09-12T20:32:29.397Z,13.14
2022-09-12T20:35:32.091Z,13.11
2022-09-12T20:38:35.214Z,13.13
2022-09-12T20:41:37.834Z,13.09
2022-09-12T20:44:40.352Z,13.04
2022-09-12T20:47:43.082Z,12.96
2022-09-12T20:50:45.552Z,12.88
2022-09-12T20:53:48.657Z,12.86
2022-09-12T20:56:51.194Z,12.80
2022-09-12T20:59:54.168Z,12.66
2022-09-12T21:02:56.872Z,12.48
2022-09-12T21:05:59.591Z,12.40
2022-09-12T21:09:02.020Z,12.32
2022-09-12T21:12:04.770Z,12.26
2022-09-12T21:15:07.634Z,12.25
2022-09-12T21:18:10.306Z,12.21
2022-09-12T21:21:14.136Z,12.16
2022-09-12T21:24:16.850Z,12.16
2022-09-12T21:27:19.288Z,12.09
2022-09-12T21:30:22.285Z,12.04
2022-09-12T21:33:24.978Z,12.08
2022-09-12T21:36:27.591Z,12.05
2022-09-12T21:39:30.284Z,12.00
2022-09-12T21:42:33.000Z,12.04
2022-09-12T21:45:35.350Z,11.97
2022-09-12T21:48:38.132Z,11.91
2022-09-12T21:51:40.484Z,11.88
2022-09-12T21:54:43.169Z,11.76
2022-09-12T21:57:46.752Z,11.87
2022-09-12T22:00:49.672Z,11.90
2022-09-12T22:03:52.836Z,11.88
2022-09-12T22:06:55.229Z,11.86
2022-09-12T22:09:58.004Z,11.80
2022-09-12T22:13:04.045Z,11.73
2022-09-12T22:16:07.586Z,11.82
2022-09-12T22:19:10.043Z,11.78
2022-09-12T22:22:31.624Z,11.77
2022-09-12T22:25:34.128Z,11.74
2022-09-12T22:28:36.887Z,11.82
2022-09-12T22:31:39.961Z,11.95
2022-09-12T22:34:42.733Z,11.94
2022-09-12T22:37:46.786Z,12.16
2022-09-12T22:40:49.940Z,12.12
2022-09-12T22:43:52.283Z,12.03
2022-09-12T22:46:54.954Z,11.95
2022-09-12T22:49:57.452Z,11.95
2022-09-12T22:53:00.120Z,11.92
2022-09-12T22:56:03.602Z,11.82
2022-09-12T22:59:06.774Z,11.69
2022-09-12T23:02:09.148Z,11.59
2022-09-12T23:05:12.329Z,11.59
2022-09-12T23:08:16.230Z,11.51
2022-09-12T23:11:20.866Z,11.43
2022-09-12T23:14:23.286Z,11.37
2022-09-12T23:17:25.898Z,11.41
2022-09-12T23:20:28.902Z,11.40
2022-09-12T23:23:31.997Z,11.37
2022-09-12T23:26:34.408Z,11.30
2022-09-12T23:29:37.126Z,11.20
2022-09-12T23:32:39.476Z,11.09
2022-09-12T23:35:42.983Z,11.02
2022-09-12T23:38:46.216Z,10.88
2022-09-12T23:41:49.758Z,10.83
2022-09-12T23:44:52.190Z,10.80
2022-09-12T23:47:54.870Z,10.76
2022-09-12T23:50:57.633Z,10.72
2022-09-12T23:54:00.355Z,10.72
2022-09-12T23:57:02.787Z,10.69
